KAAF

Apalachicola Regional-Cleve Randolph Field Airport

Apalachicola, Florida, USA
METAR KAAF 182153Z AUTO 22008KT 10SM CLR 31/26 A3006 RMK AO2 LTG DSNT NE SLP178 T03060256
Observed Flight Rules
Jun-18 @ 21:53 UTC (44 minutes ago) Visual Flight Rules
Wind Visibility Clouds
220° at 8 knots 10 miles
  • Clear skies
Temperatures Readings
Current 31°C / 88°F
Dewpoint 26°C / 79°F
Humidity 75%
Altimeter 30.06" Hg
Pressure 1017.8 hPa
Elevation 5
METAR KAAF 182153Z AUTO 22008KT 10SM CLR 31/26 A3006 RMK AO2 LTG DSNT NE SLP178 T03060256
Observed Flight Rules
Jun-18 @ 21:53 UTC
(44 minutes ago)
VFR
Wind Visibility
220° at 8 knots 10 miles
Clouds
  • Clear skies
Temperature Dewpoint
31°C / 88°F 26°C / 79°F
Humidity Altimeter Pressure
75% 30.06" Hg 1017.8 hPa